Sulphur Espoir — 3FXA2 — position and weather

sailwx.info

Track history (hours):
 
Tides and Currents Weather Stations Pressure Air Temp Water Temp Dewpoint Dewpoint Depression Visibility Wind Speed Wind Dir Waves Ship Positions

Sulphur Espoir

Last reported at 2018-Feb-17 21:09 UTC. Time now 2018-Feb-18 06:46 UTC.
Position N 30°59' E 122°29'.

Length 100 m; draft 4.3 m.

Type: Ship (hazmat cat C). MMSI: 373734000.

Date/timePositionNaut miles runAvg speedWind from/ knotsBaromVisibWave heightAir tempDewpointWater temp
2018-Feb-17 21:09N 30°59' E 122°29'413.1
2018-Feb-17 20:52N 31°00' E 122°25'513.8
2018-Feb-17 20:30N 31°02' E 122°20'713.4
2018-Feb-17 20:00N 31°03' E 122°12'611.0
2018-Feb-17 19:30N 31°04' E 122°06'612.1
2018-Feb-17 19:00N 31°06' E 121°59'510.3
2018-Feb-17 18:30N 31°08' E 121°54'510.2
2018-Feb-17 18:00N 31°12' E 121°49'  
2018-Feb-14 08:41N 32°02' E 120°26'3610.9
2018-Feb-14 05:24N 31°46' E 121°04'613.4
2018-Feb-14 04:58N 31°42' E 121°09'613.8
2018-Feb-14 04:30N 31°38' E 121°15'713.5
2018-Feb-14 04:00N 31°33' E 121°20'611.2
2018-Feb-14 03:30N 31°30' E 121°26'711.3
2018-Feb-14 02:56N 31°25' E 121°31'1410.3
2018-Feb-14 01:34N 31°17' E 121°45'112.7
2018-Feb-14 01:30N 31°16' E 121°45'613.0
2018-Feb-14 01:00N 31°12' E 121°50'713.1
2018-Feb-14 00:30N 31°07' E 121°56'612.3
2018-Feb-14 00:00N 31°05' E 122°02'612.6
2018-Feb-13 23:30N 31°03' E 122°10'5 9.7
2018-Feb-13 23:00N 31°03' E 122°15'711.9
2018-Feb-13 22:26N 31°02' E 122°23'911.2
2018-Feb-13 21:39N 31°00' E 122°33'311.2
2018-Feb-13 21:24N 30°60' E 122°36'  
2018-Feb-09 22:43N 34°30' E 138°21'2511.5
2018-Feb-09 20:31N 34°33' E 138°52'3010.1
2018-Feb-09 17:30N 34°53' E 139°19'2710.8
2018-Feb-09 15:00N 35°10' E 139°45'611.2
2018-Feb-09 14:30N 35°15' E 139°46'14 9.0
2018-Feb-09 13:00N 35°29' E 139°50'510.9
2018-Feb-09 12:30N 35°31' E 139°56'5 0.4
2018-Feb-09 00:00N 35°31' E 140°02'8 8.1
2018-Feb-08 23:00N 35°29' E 139°53'1110.9
2018-Feb-08 22:00N 35°20' E 139°44'510.7
2018-Feb-08 21:30N 35°15' E 139°47'1010.4
2018-Feb-08 20:30N 35°05' E 139°44'  
Track history (hours):
 
Tides and Currents Weather Stations Pressure Air Temp Water Temp Dewpoint Dewpoint Depression Visibility Wind Speed Wind Dir Waves Ship Positions

Sulphur Espoir

Last reported at 2018-Feb-17 21:09 UTC. Time now 2018-Feb-18 06:46 UTC.
Position N 30°59' E 122°29'.

Length 100 m; draft 4.3 m.

Type: Ship (hazmat cat C). MMSI: 373734000.

Date/timePositionNaut miles runAvg speedWind from/ knotsBaromVisibWave heightAir tempDewpointWater temp
2018-Feb-17 21:09N 30°59' E 122°29'413.1
2018-Feb-17 20:52N 31°00' E 122°25'513.8
2018-Feb-17 20:30N 31°02' E 122°20'713.4
2018-Feb-17 20:00N 31°03' E 122°12'611.0
2018-Feb-17 19:30N 31°04' E 122°06'612.1
2018-Feb-17 19:00N 31°06' E 121°59'510.3
2018-Feb-17 18:30N 31°08' E 121°54'510.2
2018-Feb-17 18:00N 31°12' E 121°49'  
2018-Feb-14 08:41N 32°02' E 120°26'3610.9
2018-Feb-14 05:24N 31°46' E 121°04'613.4
2018-Feb-14 04:58N 31°42' E 121°09'613.8
2018-Feb-14 04:30N 31°38' E 121°15'713.5
2018-Feb-14 04:00N 31°33' E 121°20'611.2
2018-Feb-14 03:30N 31°30' E 121°26'711.3
2018-Feb-14 02:56N 31°25' E 121°31'1410.3
2018-Feb-14 01:34N 31°17' E 121°45'112.7
2018-Feb-14 01:30N 31°16' E 121°45'613.0
2018-Feb-14 01:00N 31°12' E 121°50'713.1
2018-Feb-14 00:30N 31°07' E 121°56'612.3
2018-Feb-14 00:00N 31°05' E 122°02'612.6
2018-Feb-13 23:30N 31°03' E 122°10'5 9.7
2018-Feb-13 23:00N 31°03' E 122°15'711.9
2018-Feb-13 22:26N 31°02' E 122°23'911.2
2018-Feb-13 21:39N 31°00' E 122°33'311.2
2018-Feb-13 21:24N 30°60' E 122°36'  
2018-Feb-09 22:43N 34°30' E 138°21'2511.5
2018-Feb-09 20:31N 34°33' E 138°52'3010.1
2018-Feb-09 17:30N 34°53' E 139°19'2710.8
2018-Feb-09 15:00N 35°10' E 139°45'611.2
2018-Feb-09 14:30N 35°15' E 139°46'14 9.0
2018-Feb-09 13:00N 35°29' E 139°50'510.9
2018-Feb-09 12:30N 35°31' E 139°56'5 0.4
2018-Feb-09 00:00N 35°31' E 140°02'8 8.1
2018-Feb-08 23:00N 35°29' E 139°53'1110.9
2018-Feb-08 22:00N 35°20' E 139°44'510.7
2018-Feb-08 21:30N 35°15' E 139°47'1010.4
2018-Feb-08 20:30N 35°05' E 139°44'  

Dump ship's entire track history